CDT,Max TemperatureF,Mean TemperatureF,Min TemperatureF,Max Dew PointF,MeanDew PointF,Min DewpointF,Max Humidity, Mean Humidity, Min Humidity, Max Sea Level PressureIn, Mean Sea Level PressureIn, Min Sea Level PressureIn, Max VisibilityMiles, Mean VisibilityMiles, Min VisibilityMiles, Max Wind SpeedMPH, Mean Wind SpeedMPH, Max Gust SpeedMPH,PrecipitationIn, CloudCover, Events, WindDirDegrees
2013-6-1,77,67,57,73,65,58,100,85,69,29.99,29.85,29.72,10,9,6,38,6,49,0.42,5,Rain-Thunderstorm,237
2013-6-2,69,61,52,59,57,53,100,84,68,30.05,30.02,29.99,10,10,10,10,4,15,0.00,4,,355
2013-6-3,80,64,48,62,55,48,100,77,54,30.06,29.99,29.90,10,6,0,8,1,23,0.00,1,Fog,139
2013-6-4,78,69,60,67,63,59,100,82,64,29.99,29.93,29.89,10,10,8,15,5,32,0.00,1,,136
2013-6-5,79,69,59,68,64,59,100,82,64,30.06,29.94,29.85,10,8,1,18,4,25,0.40,4,Rain-Thunderstorm,251
2013-6-6,73,64,55,62,60,55,100,83,66,29.96,29.92,29.88,10,9,4,14,4,31,0.00,6,,337
2013-6-7,77,64,50,58,54,50,100,73,46,29.98,29.94,29.90,10,10,7,16,4,20,0.00,1,,326
2013-6-8,80,65,50,61,56,50,100,73,46,29.96,29.92,29.85,10,10,4,14,3,16,0.00,0,,163
2013-6-9,82,72,61,64,60,57,90,68,45,29.90,29.86,29.83,10,10,10,16,7,21,T,1,,237
2013-6-10,89,75,61,68,63,58,84,61,38,29.92,29.89,29.85,10,10,10,20,8,25,0.00,1,,227
2013-6-11,91,80,68,69,67,65,87,66,44,29.99,29.94,29.91,10,10,10,20,9,26,0.00,0,,194
2013-6-12,89,80,71,70,69,67,87,69,50,30.04,29.95,29.90,10,10,10,25,11,32,0.00,0,Rain,202
2013-6-13,91,80,69,72,69,66,87,69,50,30.00,29.96,29.92,10,10,10,12,5,15,0.00,0,,274
2013-6-14,91,79,66,72,69,65,100,78,55,30.01,29.97,29.92,10,10,10,12,4,15,0.00,2,,175
2013-6-15,89,80,70,70,66,62,97,74,51,30.07,29.99,29.94,10,10,6,17,6,21,0.22,2,Rain-Thunderstorm,162
2013-6-16,87,77,66,70,68,64,100,78,55,30.01,29.96,29.91,10,10,8,22,5,33,0.05,4,Rain,208
2013-6-17,78,71,63,70,67,64,100,87,74,29.96,29.93,29.87,10,9,2,14,4,21,0.27,6,Rain-Thunderstorm,317
2013-6-18,84,74,63,67,64,61,100,76,51,30.06,29.99,29.93,10,7,0,9,2,17,0.00,4,Fog,37
2013-6-19,85,72,59,67,63,59,100,72,44,30.05,30.01,29.96,10,9,2,13,3,17,0.01,1,,157
2013-6-20,88,75,61,70,67,61,100,77,53,30.07,30.02,29.98,10,9,3,16,7,22,0.00,0,,162
2013-6-21,90,82,74,72,70,69,87,70,52,30.07,30.03,29.99,10,10,10,18,8,24,0.00,0,,175
2013-6-22,88,80,71,71,69,67,87,69,50,30.06,30.00,29.93,10,10,10,18,8,25,0.00,0,,172
2013-6-23,89,82,74,71,69,66,82,66,50,29.99,29.96,29.91,10,10,10,22,10,26,0.00,0,,172
2013-6-24,89,81,72,70,68,66,84,69,53,30.04,29.99,29.94,10,10,10,18,9,24,0.00,1,,171
2013-6-25,88,81,74,70,68,66,82,66,50,29.97,29.91,29.84,10,10,10,25,13,33,0.00,0,,181
2013-6-26,92,83,74,74,71,69,94,73,52,29.92,29.87,29.83,10,10,10,21,10,28,0.00,0,,207
2013-6-27,96,83,70,75,71,68,100,72,43,29.96,29.92,29.86,10,10,8,12,5,15,0.00,0,,215
2013-6-28,92,82,72,74,67,58,85,62,38,29.91,29.86,29.81,10,10,10,17,7,22,0.00,1,,314
2013-6-29,87,74,60,61,55,48,97,63,29,29.88,29.84,29.79,10,10,9,24,9,30,0.00,0,,324
2013-6-30,78,67,56,59,57,53,93,71,48,29.95,29.89,29.83,10,10,10,18,5,23,0.00,3,,355